Latest Weather Observations for Loxton

IDS60801

Issued at 6:35 pm CST Wednesday 23 April 2014 (issued every 30 minutes, with the page automatically refreshed every 10 minutes)

About weather observations | Map of weather stations | Latest weather observations for SA | Other Formats
Station Details ID: 024024 Name: LOXTON RESEARCH CENTRE Lat: -34.44 Lon: 140.60 Height: 30.1 m
Data from the previous 72 hours. | See also: Recent months at Loxton
Date/Time
CST
Temp
°C
App
Temp
°C
Dew
Point
Rel
Hum
%
Delta-T
°C
Wind Press
QNH
hPa
Press
MSL
hPa
Rain
since 9 am
mm
Dir
 
Spd
km/h
Gust
km/h
Spd
kts
Gust
kts
23/06:30pm 13.0 12.8 9.0 77 2.0 SSW 0 0 0 0 1015.0 1014.9 0.0
23/06:00pm 14.0 13.9 9.5 74 2.3 SSW 0 0 0 0 1014.6 1014.5 0.0
23/05:30pm 16.2 16.3 10.3 68 3.1 CALM 0 0 0 0 1014.3 1014.2 0.0
23/05:00pm 19.0 17.6 8.9 52 5.3 SW 6 7 3 4 1014.4 - 0.0
23/04:30pm 20.8 18.3 3.7 32 8.2 WSW 6 7 3 4 1014.3 1014.2 0.0
23/04:00pm 21.1 18.7 4.2 33 8.2 WNW 6 13 3 7 1014.3 - 0.0
23/03:30pm 21.6 18.8 3.4 30 8.7 W 7 13 4 7 1014.6 1014.5 0.0
23/03:00pm 21.3 18.2 1.2 26 9.2 W 7 11 4 6 1014.7 1014.6 0.0
23/02:30pm 21.4 19.0 2.4 28 8.9 NNW 4 9 2 5 1014.9 1014.8 0.0
23/02:00pm 21.3 18.6 3.6 31 8.5 SSW 7 15 4 8 1014.9 - 0.0
23/01:30pm 20.8 17.8 4.3 34 8.0 W 9 17 5 9 1015.3 1015.2 0.0
23/01:00pm 19.8 17.9 5.0 37 7.2 SSE 4 9 2 5 1015.7 - 0.0
23/12:30pm 20.4 18.2 5.4 37 7.4 SE 6 13 3 7 1016.4 1016.3 0.0
23/12:00pm 19.3 16.9 5.4 40 6.8 W 7 13 4 7 1017.0 1016.9 0.0
23/11:30am 18.9 16.9 6.2 43 6.3 N 6 11 3 6 1017.4 1017.3 0.0
23/11:00am 17.8 17.3 7.7 51 5.1 CALM 0 0 0 0 1017.9 - 0.0
23/10:30am 17.5 15.7 7.8 53 4.9 N 7 9 4 5 1018.0 1017.9 0.0
23/10:00am 16.9 15.3 8.2 56 4.4 SE 6 9 3 5 1018.2 - 0.0
23/09:30am 16.2 15.6 8.8 61 3.8 E 2 6 1 3 1018.5 1018.4 0.0
23/09:00am 13.9 12.9 8.7 71 2.6 S 4 7 2 4 1018.7 1018.6 0.0
23/08:30am 12.1 10.4 8.5 78 1.8 SE 7 9 4 5 1018.6 1018.5 0.0
23/08:00am 10.3 9.8 7.8 84 1.2 CALM 0 0 0 0 1018.5 - 0.0
23/07:30am 7.1 6.2 6.2 94 0.4 CALM 0 0 0 0 1018.3 1018.2 0.0
23/07:00am 5.5 4.3 4.6 94 0.4 CALM 0 0 0 0 1018.0 - 0.0
23/06:30am 5.4 4.2 4.5 94 0.4 CALM 0 0 0 0 1017.9 1017.8 0.0
23/06:00am 6.9 6.0 6.2 95 0.3 SW 0 0 0 0 1017.8 1017.7 0.0
23/05:30am 7.3 5.2 6.6 95 0.3 SW 7 9 4 5 1017.6 1017.5 0.0
23/05:00am 6.5 4.2 5.6 94 0.4 SW 7 9 4 5 1017.7 - 0.0
23/04:30am 6.3 5.3 5.4 94 0.4 CALM 0 0 0 0 1017.8 1017.7 0.0
23/04:00am 6.5 5.5 5.6 94 0.4 CALM 0 0 0 0 1017.7 - 0.0
23/03:30am 7.1 6.2 6.0 93 0.5 CALM 0 0 0 0 1017.9 1017.8 0.0
23/03:00am 7.9 7.2 7.0 94 0.4 CALM 0 0 0 0 1018.0 1017.9 0.0
23/02:30am 8.6 7.9 7.1 90 0.7 CALM 0 0 0 0 1018.0 1017.9 0.0
23/02:00am 10.0 8.4 8.1 88 0.9 S 6 9 3 5 1018.0 - 0.0
23/01:30am 10.7 8.6 8.2 84 1.2 SSW 9 11 5 6 1018.2 1018.1 0.0
23/01:00am 11.2 9.6 8.8 85 1.2 SSW 7 9 4 5 1018.4 - 0.0
23/12:30am 12.1 10.1 8.7 80 1.7 S 9 11 5 6 1018.3 1018.2 0.0
23/12:00am 13.0 10.6 8.6 74 2.2 S 11 17 6 9 1018.2 1018.1 0.0
 
Date/Time
CST
Temp
°C
App
Temp
°C
Dew
Point
Rel
Hum
%
Delta-T
°C
Wind Press
QNH
hPa
Press
MSL
hPa
Rain
since 9 am
mm
Dir
 
Spd
km/h
Gust
km/h
Spd
kts
Gust
kts
22/11:30pm 13.4 10.6 8.6 73 2.4 S 13 17 7 9 1018.3 1018.2 0.0
22/11:00pm 13.9 11.4 8.3 69 2.8 S 11 17 6 9 1018.2 - 0.0
22/10:30pm 14.2 11.6 7.7 65 3.2 S 11 17 6 9 1018.4 1018.3 0.0
22/10:00pm 14.6 11.1 7.3 61 3.6 S 15 20 8 11 1018.4 - 0.0
22/09:30pm 15.1 11.1 6.7 57 4.1 SSW 17 24 9 13 1018.5 1018.4 0.0
22/09:00pm 15.2 11.6 6.6 56 4.2 SW 15 20 8 11 1018.3 1018.2 0.0
22/08:30pm 15.8 12.2 6.6 54 4.5 SSW 15 20 8 11 1018.1 1018.0 0.0
22/08:00pm 15.8 13.1 7.3 57 4.2 SSW 11 15 6 8 1017.9 - 0.0
22/07:30pm 16.6 13.0 6.9 52 4.8 SSW 15 22 8 12 1017.8 1017.7 0.0
22/07:00pm 17.0 14.1 6.7 50 5.1 SSW 11 17 6 9 1017.4 - 0.0
22/06:30pm 17.6 14.3 6.5 48 5.5 SSW 13 20 7 11 1017.1 1017.0 0.0
22/06:00pm 18.1 14.5 6.6 47 5.7 SSW 15 22 8 12 1016.7 1016.6 0.0
22/05:30pm 18.9 15.4 7.2 46 5.9 SSW 15 22 8 12 1016.4 1016.3 0.0
22/05:00pm 19.5 16.9 9.3 51 5.4 SSW 13 20 7 11 1016.2 - 0.0
22/04:30pm 20.0 17.0 9.2 49 5.7 SSW 15 22 8 12 1016.1 1016.0 0.0
22/04:00pm 20.4 17.5 9.5 49 5.8 SSW 15 26 8 14 1016.0 - 0.0
22/03:30pm 20.8 17.5 9.6 48 6.0 SSW 17 28 9 15 1015.9 1015.8 0.0
22/03:00pm 21.3 17.7 10.0 48 6.1 SW 19 30 10 16 1015.7 1015.6 0.0
22/02:30pm 21.4 18.1 10.8 50 5.8 SSW 19 30 10 16 1015.6 1015.5 0.0
22/02:00pm 21.1 18.4 11.8 55 5.2 SW 17 24 9 13 1015.5 - 0.0
22/01:30pm 20.6 17.5 12.2 58 4.7 SW 20 28 11 15 1015.5 1015.4 0.0
22/01:00pm 21.4 18.9 12.4 56 5.1 SW 17 26 9 14 1015.6 - 0.0
22/12:30pm 21.2 18.2 12.1 56 5.1 SW 19 28 10 15 1015.7 1015.6 0.0
22/12:00pm 21.5 19.0 12.3 55 5.2 WSW 17 30 9 16 1016.0 1015.9 0.0
22/11:30am 20.6 17.7 12.8 61 4.4 SW 20 32 11 17 1016.2 1016.1 0.0
22/11:00am 20.3 17.7 13.1 63 4.1 SW 19 28 10 15 1016.1 - 0.0
22/10:30am 20.6 18.0 13.8 65 3.9 SSW 20 33 11 18 1015.9 1015.8 0.0
22/10:00am 19.3 17.1 14.3 73 2.9 SSW 19 26 10 14 1015.9 - 0.0
22/09:30am 18.9 16.6 14.6 76 2.5 SW 20 28 11 15 1015.8 1015.7 0.0
22/09:00am 18.2 15.4 14.2 77 2.3 SW 22 30 12 16 1015.7 1015.6 0.0
22/08:30am 19.3 17.8 10.6 57 4.7 WSW 9 13 5 7 1015.1 1015.0 0.0
22/08:00am 19.2 16.3 8.2 49 5.7 W 13 17 7 9 1015.0 - 0.0
22/07:30am 17.8 15.6 7.7 51 5.1 W 9 13 5 7 1014.6 1014.5 0.0
22/07:00am 17.7 15.8 7.6 51 5.1 NNW 7 11 4 6 1013.9 - 0.0
22/06:30am 16.1 14.8 9.8 66 3.3 N 7 9 4 5 1013.5 1013.4 0.0
22/06:00am 16.4 14.8 8.1 58 4.2 N 6 11 3 6 1013.2 1013.1 0.0
22/05:30am 16.1 15.1 10.2 68 3.1 NNW 6 7 3 4 1013.2 1013.1 0.0
22/05:00am 17.8 15.8 7.3 50 5.3 WNW 7 11 4 6 1013.2 - 0.0
22/04:30am 17.8 16.2 8.2 53 4.9 W 6 9 3 5 1012.8 1012.7 0.0
22/04:00am 20.8 17.8 6.0 38 7.4 NNW 11 17 6 9 1012.6 - 0.0
22/03:30am 20.8 17.8 6.0 38 7.4 N 11 17 6 9 1012.2 1012.2 0.0
22/03:00am 20.3 17.9 6.9 41 6.8 N 9 15 5 8 1012.3 1012.3 0.0
22/02:30am 20.7 17.8 6.4 39 7.2 N 11 15 6 8 1012.4 1012.4 0.0
22/02:00am 21.0 17.7 6.3 38 7.4 N 13 20 7 11 1012.4 - 0.0
22/01:30am 21.3 18.0 6.2 37 7.6 N 13 24 7 13 1012.6 1012.6 0.0
22/01:00am 21.4 18.1 6.4 37 7.6 N 13 20 7 11 1012.6 - 0.0
22/12:30am 21.5 17.8 6.5 37 7.6 N 15 24 8 13 1012.8 1012.7 0.0
22/12:00am 21.9 17.9 6.6 37 7.8 N 17 26 9 14 1013.0 1012.9 0.0
 
Date/Time
CST
Temp
°C
App
Temp
°C
Dew
Point
Rel
Hum
%
Delta-T
°C
Wind Press
QNH
hPa
Press
MSL
hPa
Rain
since 9 am
mm
Dir
 
Spd
km/h
Gust
km/h
Spd
kts
Gust
kts
21/11:30pm 21.8 18.6 6.7 37 7.7 N 13 20 7 11 1013.1 1013.0 0.0
21/11:00pm 22.5 18.5 6.7 36 8.1 N 17 26 9 14 1013.5 - 0.0
21/10:30pm 22.9 18.8 6.2 34 8.5 N 17 24 9 13 1013.7 1013.6 0.0
21/10:00pm 22.9 19.2 6.5 34 8.4 N 15 24 8 13 1013.6 - 0.0
21/09:30pm 23.5 19.4 6.3 33 8.8 N 17 24 9 13 1013.7 1013.6 0.0
21/09:00pm 22.4 19.6 7.1 37 7.9 N 11 15 6 8 1013.7 1013.6 0.0
21/08:30pm 22.5 19.3 7.0 36 8.0 N 13 17 7 9 1013.7 1013.6 0.0
21/08:00pm 20.7 18.2 8.2 44 6.5 N 11 15 6 8 1013.6 - 0.0
21/07:30pm 17.4 16.5 11.3 67 3.3 N 7 11 4 6 1013.6 1013.5 0.0
21/07:00pm 19.1 18.0 10.8 58 4.5 N 7 9 4 5 1013.4 - 0.0
21/06:30pm 23.0 21.2 8.0 38 7.9 NNW 7 11 4 6 1013.3 1013.2 0.0
21/06:00pm 25.4 22.8 6.3 29 9.9 N 9 13 5 7 1013.1 1013.0 0.0
21/05:30pm 26.5 23.5 5.8 26 10.7 N 11 17 6 9 1012.9 1012.8 0.0
21/05:00pm 27.6 23.6 5.0 23 11.6 NNW 15 26 8 14 1012.6 - 0.0
21/04:30pm 28.3 23.4 4.1 21 12.3 NNW 19 28 10 15 1012.5 1012.5 0.0
21/04:00pm 28.7 24.3 4.5 21 12.4 NNW 17 26 9 14 1012.6 - 0.0
21/03:30pm 28.5 23.5 4.8 22 12.2 NNW 20 30 11 16 1012.8 1012.7 0.0
21/03:00pm 28.6 23.9 5.0 22 12.2 NNW 19 30 10 16 1013.0 1012.9 0.0
21/02:30pm 28.3 23.7 5.4 23 11.9 NNW 19 32 10 17 1013.1 1013.0 0.0
21/02:00pm 28.1 23.3 5.6 24 11.7 NNW 20 35 11 19 1013.3 - 0.0
21/01:30pm 28.1 23.0 5.9 24 11.6 NNW 22 33 12 18 1013.7 1013.6 0.0
21/01:00pm 27.7 23.3 6.4 26 11.2 N 19 30 10 16 1014.0 - 0.0
21/12:30pm 26.4 20.9 5.9 27 10.6 NNW 24 39 13 21 1014.6 1014.5 0.0
21/12:00pm 26.0 21.0 6.4 28 10.2 N 22 35 12 19 1015.2 1015.1 0.0
21/11:30am 25.4 19.6 6.3 29 9.9 N 26 37 14 20 1015.7 1015.6 0.0
21/11:00am 24.2 18.8 6.3 31 9.2 N 24 37 13 20 1016.3 - 0.0
21/10:30am 23.2 19.3 7.2 35 8.3 N 17 26 9 14 1016.8 1016.7 0.0
21/10:00am 21.4 17.4 6.6 38 7.5 N 17 28 9 15 1017.1 - 0.0
21/09:30am 19.9 15.9 6.8 42 6.6 N 17 24 9 13 1017.3 1017.2 0.0
21/09:00am 17.7 13.7 6.8 49 5.4 N 17 26 9 14 1017.3 1017.2 0.0
21/08:30am 16.2 12.2 6.6 53 4.7 NNE 17 24 9 13 1017.5 1017.4 0.0
21/08:00am 14.7 11.1 6.7 58 3.9 N 15 24 8 13 1017.5 - 0.0
21/07:30am 13.0 10.1 6.7 65 3.0 NNE 11 13 6 7 1017.5 1017.4 0.0
21/07:00am 12.6 9.3 6.5 66 2.9 NNE 13 17 7 9 1017.5 - 0.0
21/06:30am 12.4 9.5 6.5 67 2.8 NNE 11 15 6 8 1017.5 1017.4 0.0
21/06:00am 12.3 9.4 6.6 68 2.7 NNE 11 13 6 7 1017.7 1017.6 0.0
21/05:30am 12.7 9.8 6.4 65 3.0 NNE 11 17 6 9 1017.6 1017.5 0.0
21/05:00am 12.9 9.6 6.6 65 3.0 NNE 13 17 7 9 1017.2 - 0.0
21/04:30am 12.6 9.8 7.0 68 2.7 NNE 11 15 6 8 1017.5 1017.4 0.0
21/04:00am 11.9 10.7 8.0 77 1.9 NNE 4 7 2 4 1017.8 - 0.0
21/03:30am 12.3 9.9 6.9 69 2.6 N 9 13 5 7 1017.6 1017.5 0.0
21/03:00am 9.8 7.4 7.0 83 1.3 NE 9 11 5 6 1017.6 1017.5 0.0
21/02:30am 8.6 8.0 7.3 91 0.6 CALM 0 0 0 0 1017.8 1017.7 0.0
21/02:00am 8.5 7.9 7.2 91 0.6 CALM 0 0 0 0 1017.9 - 0.0
21/01:30am 8.7 7.2 7.0 89 0.8 NNE 4 7 2 4 1018.3 1018.2 0.0
21/01:00am 8.9 8.3 7.4 90 0.7 CALM 0 0 0 0 1018.3 - 0.0
21/12:30am 9.0 8.4 7.3 89 0.8 CALM 0 0 0 0 1018.1 1018.0 0.0
21/12:00am 9.2 8.7 7.7 90 0.7 CALM 0 0 0 0 1018.4 1018.3 0.0
 
Date/Time
CST
Temp
°C
App
Temp
°C
Dew
Point
Rel
Hum
%
Delta-T
°C
Wind Press
QNH
hPa
Press
MSL
hPa
Rain
since 9 am
mm
Dir
 
Spd
km/h
Gust
km/h
Spd
kts
Gust
kts
20/11:30pm 9.2 8.7 7.7 90 0.7 CALM 0 0 0 0 1018.6 1018.5 0.0
20/11:00pm 9.6 9.0 7.5 87 1.0 CALM 0 0 0 0 1018.8 - 0.0
20/10:30pm 9.6 9.2 8.4 92 0.6 CALM 0 0 0 0 1019.1 1019.0 0.0
20/10:00pm 9.6 9.2 8.1 90 0.7 CALM 0 0 0 0 1019.1 - 0.0
20/09:30pm 9.9 9.3 7.6 85 1.1 CALM 0 0 0 0 1019.0 1018.9 0.0
20/09:00pm 10.8 10.5 8.8 87 1.0 CALM 0 0 0 0 1019.2 1019.1 0.0
20/08:30pm 10.7 10.4 8.5 86 1.1 CALM 0 0 0 0 1018.8 1018.7 0.0
20/08:00pm 11.4 11.3 9.4 87 1.0 CALM 0 0 0 0 1018.5 - 0.0
20/07:30pm 12.3 12.2 9.3 82 1.5 CALM 0 0 0 0 1018.6 1018.5 0.0
20/07:00pm 12.7 12.7 9.8 82 1.5 CALM 0 0 0 0 1018.5 - 0.0

Other Formats:

Comma delimited format used in spreadsheet applications
http://www.bom.gov.au/fwo/IDS60801/IDS60801.94682.axf

JavaScript Object Notation format (JSON) in row-major order
http://www.bom.gov.au/fwo/IDS60801/IDS60801.94682.json